Time;durP1;ratioP1;P1;durP2;ratioP2;P2;SDS_P1;SDS_P2;PMS_P1;PMS_P2;Temp;Humidity;BMP_temperature;BMP_pressure;BME280_temperature;BME280_humidity;BME280_pressure;Samples;Min_cycle;Max_cycle;Signal;HPM_P1;HPM_P2
2022/12/02 07:17:50;;;;;;;37.83;12.65;;;;;;;2.21;100.00;99249.25;5171811;27;20750;-77
2022/12/02 07:20:29;;;;;;;37.20;14.52;;;;;;;2.24;100.00;99241.81;5172127;27;20043;-77
2022/12/02 07:22:58;;;;;;;36.15;13.38;;;;;;;2.31;100.00;99236.75;5163905;27;20439;-78
2022/12/02 07:25:32;;;;;;;32.27;13.37;;;;;;;2.46;100.00;99262.28;5169913;27;20134;-78
2022/12/02 07:27:58;;;;;;;37.80;13.95;;;;;;;2.37;100.00;99244.28;5163327;27;20054;-78
2022/12/02 07:30:29;;;;;;;34.42;14.23;;;;;;;2.56;100.00;99258.81;5168519;27;20034;-77
2022/12/02 07:32:57;;;;;;;35.13;14.73;;;;;;;2.53;100.00;99262.63;5168852;27;20052;-78
2022/12/02 07:35:24;;;;;;;36.90;14.00;;;;;;;2.50;100.00;99238.72;5169701;27;20043;-78
2022/12/02 07:37:51;;;;;;;36.70;14.38;;;;;;;2.54;100.00;99261.63;5169502;27;20046;-78
2022/12/02 07:40:19;;;;;;;33.53;14.13;;;;;;;2.48;100.00;99248.72;5169067;27;20134;-78
2022/12/02 07:42:46;;;;;;;30.08;13.63;;;;;;;2.51;100.00;99232.34;5167725;27;20042;-78
2022/12/02 07:45:13;;;;;;;39.30;15.68;;;;;;;2.46;100.00;99239.97;5168747;27;20049;-78
2022/12/02 07:47:40;;;;;;;31.63;14.63;;;;;;;2.47;100.00;99233.63;5169341;27;20125;-78
2022/12/02 07:50:11;;;;;;;29.25;11.90;;;;;;;2.54;100.00;99242.00;5161038;27;20050;-78
2022/12/02 07:52:38;;;;;;;41.30;15.35;;;;;;;2.45;100.00;99231.06;5169034;27;20046;-78
2022/12/02 07:55:05;;;;;;;28.52;13.00;;;;;;;2.54;100.00;99236.63;5159200;27;20054;-78
2022/12/02 07:57:33;;;;;;;43.13;13.60;;;;;;;2.55;100.00;99246.38;5163115;27;20046;-78
2022/12/02 07:59:59;;;;;;;42.25;15.80;;;;;;;2.50;100.00;99241.41;5168846;27;20047;-78
2022/12/02 08:02:26;;;;;;;40.50;15.60;;;;;;;2.56;100.00;99258.81;5167692;27;20039;-78
2022/12/02 08:04:52;;;;;;;35.53;13.90;;;;;;;2.47;100.00;99247.88;5168882;27;20042;-78
2022/12/02 08:07:20;;;;;;;40.08;14.52;;;;;;;2.63;100.00;99262.66;5169069;27;20038;-78
2022/12/02 08:09:47;;;;;;;37.63;14.55;;;;;;;2.53;100.00;99241.16;5169459;27;20131;-78
2022/12/02 08:12:13;;;;;;;35.05;13.88;;;;;;;2.54;100.00;99239.31;5166576;27;20046;-78
2022/12/02 08:14:40;;;;;;;33.80;14.38;;;;;;;2.61;100.00;99259.28;5168938;27;20047;-78
2022/12/02 08:17:07;;;;;;;37.35;14.98;;;;;;;2.58;100.00;99251.50;5167927;27;20473;-78
2022/12/02 08:19:33;;;;;;;41.25;14.77;;;;;;;2.56;100.00;99245.38;5163521;27;20039;-78
2022/12/02 08:22:00;;;;;;;34.88;13.88;;;;;;;2.47;100.00;99231.78;5165533;27;20042;-78
2022/12/02 08:24:28;;;;;;;37.63;14.18;;;;;;;2.58;100.00;99260.38;5167092;27;20088;-78
2022/12/02 08:26:54;;;;;;;37.20;15.38;;;;;;;2.47;100.00;99247.88;5167378;27;20095;-78
2022/12/02 08:29:21;;;;;;;33.40;14.27;;;;;;;2.40;100.00;99233.28;5154053;27;20043;-78
2022/12/02 08:31:48;;;;;;;36.13;14.52;;;;;;;2.64;100.00;99259.84;5155132;27;20408;-78
2022/12/02 08:34:14;;;;;;;35.78;13.68;;;;;;;2.50;100.00;99237.84;5152190;27;20165;-79
2022/12/02 08:36:41;;;;;;;28.88;12.65;;;;;;;2.72;100.00;99256.50;5154742;27;20043;-79
2022/12/02 08:39:07;;;;;;;26.63;12.13;;;;;;;2.63;100.00;99250.13;5154137;27;20049;-79
2022/12/02 08:41:37;;;;;;;33.42;13.95;;;;;;;2.77;100.00;99254.28;5154094;27;20043;-79
2022/12/02 08:44:03;;;;;;;26.95;13.07;;;;;;;2.61;100.00;99240.47;5153474;27;20489;-79
2022/12/02 08:46:30;;;;;;;28.45;12.63;;;;;;;2.58;100.00;99222.81;5154419;27;20045;-79
2022/12/02 08:48:57;;;;;;;34.22;13.70;;;;;;;2.81;100.00;99247.66;5154406;27;20408;-80
2022/12/02 08:51:24;;;;;;;25.95;12.50;;;;;;;2.66;100.00;99216.75;5143700;27;20208;-80
2022/12/02 08:53:50;;;;;;;27.55;12.90;;;;;;;2.83;100.00;99256.44;5150469;27;20097;-80
2022/12/02 08:56:17;;;;;;;26.90;12.23;;;;;;;2.89;100.00;99252.38;5152004;27;20046;-79
2022/12/02 08:58:45;;;;;;;31.80;12.68;;;;;;;2.86;100.00;99249.97;5154323;27;20073;-79
2022/12/02 09:01:12;;;;;;;29.38;11.75;;;;;;;2.67;100.00;99231.91;5154136;27;20115;-79
2022/12/02 09:03:38;;;;;;;27.08;12.05;;;;;;;2.67;100.00;99228.38;5153298;27;20042;-79
2022/12/02 09:06:05;;;;;;;25.80;11.10;;;;;;;2.72;100.00;99237.72;5153318;27;20474;-80
2022/12/02 09:08:32;;;;;;;26.25;11.45;;;;;;;2.78;100.00;99223.75;5153704;27;20046;-77
2022/12/02 09:10:58;;;;;;;25.67;11.82;;;;;;;2.80;100.00;99232.53;5152038;27;20131;-80
2022/12/02 09:13:25;;;;;;;19.98;9.38;;;;;;;2.90;100.00;99229.88;5153047;27;20045;-79
2022/12/02 09:15:53;;;;;;;25.15;10.15;;;;;;;2.90;100.00;99227.19;5153676;27;20084;-78
2022/12/02 09:18:20;;;;;;;23.10;9.75;;;;;;;2.76;100.00;99235.63;5153386;27;20126;-79
2022/12/02 09:20:47;;;;;;;23.75;9.80;;;;;;;2.91;100.00;99239.66;5153829;27;20053;-79
2022/12/02 09:23:14;;;;;;;22.52;10.18;;;;;;;2.93;100.00;99248.41;5151870;27;20103;-78
2022/12/02 09:25:40;;;;;;;22.75;10.32;;;;;;;2.80;100.00;99237.91;5152423;27;20050;-79
2022/12/02 09:28:07;;;;;;;21.40;9.27;;;;;;;2.96;100.00;99237.41;5153559;27;20397;-78
2022/12/02 09:30:33;;;;;;;23.48;9.73;;;;;;;2.85;100.00;99224.09;5152648;27;20122;-78
2022/12/02 09:33:02;;;;;;;25.23;9.38;;;;;;;2.80;100.00;99218.25;5152449;27;20043;-78
2022/12/02 09:35:28;;;;;;;20.83;9.57;;;;;;;2.85;100.00;99233.97;5153950;27;20066;-79
2022/12/02 09:37:55;;;;;;;29.17;9.50;;;;;;;2.86;100.00;99239.22;5153063;27;20045;-79
2022/12/02 09:40:22;;;;;;;23.60;9.40;;;;;;;2.80;100.00;99237.03;5152349;27;20042;-79
2022/12/02 09:42:50;;;;;;;17.63;8.80;;;;;;;2.70;100.00;99212.00;5149500;27;20043;-78
2022/12/02 09:45:17;;;;;;;20.15;9.85;;;;;;;2.91;100.00;99241.50;5147789;27;20051;-79
2022/12/02 09:47:43;;;;;;;18.30;8.85;;;;;;;2.65;100.00;99212.41;5144541;27;20131;-79
2022/12/02 09:50:14;;;;;;;18.60;9.02;;;;;;;2.93;100.00;99234.16;5152868;27;20046;-79
2022/12/02 09:52:41;;;;;;;20.42;9.07;;;;;;;2.84;100.00;99217.00;5152658;27;20138;-79
2022/12/02 09:55:13;;;;;;;22.45;9.18;;;;;;;2.87;100.00;99218.56;5151647;27;20481;-78
2022/12/02 09:57:40;;;;;;;24.70;9.00;;;;;;;2.88;100.00;99220.28;5151721;27;20085;-79
2022/12/02 10:00:10;;;;;;;20.55;9.48;;;;;;;2.79;100.00;99214.72;5151301;27;20129;-80
2022/12/02 10:02:39;;;;;;;14.55;7.45;;;;;;;2.78;100.00;99206.81;5152285;27;20130;-79
2022/12/02 10:05:15;;;;;;;20.55;8.27;;;;;;;2.90;100.00;99232.56;5151034;27;20398;-79
2022/12/02 10:07:42;;;;;;;17.15;8.15;;;;;;;2.84;100.00;99217.00;5152733;27;20491;-79
2022/12/02 10:10:11;;;;;;;12.98;6.93;;;;;;;2.79;100.00;99203.13;5152705;27;20129;-78
2022/12/02 10:12:38;;;;;;;17.45;7.75;;;;;;;2.64;100.00;99189.22;5152198;27;20134;-78
2022/12/02 10:15:07;;;;;;;14.25;8.00;;;;;;;2.74;100.00;99200.00;5145495;27;20172;-78
2022/12/02 10:17:34;;;;;;;15.60;8.25;;;;;;;2.95;100.00;99211.56;5143640;27;20034;-77
2022/12/02 10:20:01;;;;;;;16.35;7.75;;;;;;;2.91;100.00;99190.47;5152803;27;20126;-78
2022/12/02 10:22:29;;;;;;;12.95;6.93;;;;;;;2.80;100.00;99200.31;5154032;27;20417;-79
2022/12/02 10:24:57;;;;;;;10.55;6.65;;;;;;;2.93;100.00;99200.06;5150602;27;20614;-78
2022/12/02 10:27:32;;;;;;;15.98;7.82;;;;;;;2.86;100.00;99182.81;5151666;27;20061;-79
2022/12/02 10:30:17;;;;;;;16.33;8.23;;;;;;;3.03;100.00;99213.56;5152007;27;20046;-79
2022/12/02 10:32:58;;;;;;;41.15;19.70;;;;;;;3.03;100.00;99210.00;5147986;27;20051;-80
2022/12/02 10:35:25;;;;;;;90.28;45.85;;;;;;;2.94;100.00;99183.00;5150452;27;20054;-78
2022/12/02 10:37:54;;;;;;;67.07;35.47;;;;;;;2.93;100.00;99181.28;5147229;27;20057;-78
2022/12/02 10:40:23;;;;;;;40.25;21.52;;;;;;;2.92;100.00;99171.53;5141945;27;20046;-79
2022/12/02 10:43:08;;;;;;;17.92;8.65;;;;;;;3.05;100.00;99195.47;5150570;27;20085;-80
2022/12/02 10:45:35;;;;;;;16.00;9.13;;;;;;;2.97;100.00;99187.25;5150964;27;20050;-78
2022/12/02 10:48:12;;;;;;;19.00;10.32;;;;;;;3.01;100.00;99196.72;5151784;27;20050;-79
2022/12/02 10:50:39;;;;;;;16.35;7.47;;;;;;;2.83;100.00;99172.31;5142132;27;20133;-79
2022/12/02 10:53:13;;;;;;;19.20;9.30;;;;;;;2.92;100.00;99179.59;5143116;27;20043;-79
2022/12/02 10:55:40;;;;;;;15.43;7.93;;;;;;;2.74;100.00;99162.41;5143517;27;20426;-79
2022/12/02 10:58:11;;;;;;;29.85;22.25;;;;;;;2.89;100.00;99160.19;5143775;27;20071;-78
2022/12/02 11:00:38;;;;;;;20.60;12.13;;;;;;;2.73;100.00;99147.31;5147015;27;20055;-79
2022/12/02 11:03:05;;;;;;;30.42;20.50;;;;;;;2.67;100.00;99159.41;5146333;27;20057;-78
2022/12/02 11:05:34;;;;;;;25.88;17.52;;;;;;;2.76;100.00;99182.78;5151180;27;20081;-79
2022/12/02 11:08:02;;;;;;;19.48;12.60;;;;;;;2.62;100.00;99158.97;5145518;27;20070;-79
2022/12/02 11:10:37;;;;;;;17.08;8.10;;;;;;;2.70;100.00;99172.56;5146429;27;20063;-79
2022/12/02 11:13:07;;;;;;;62.88;30.73;;;;;;;2.64;100.00;99152.47;5143886;27;20447;-78
2022/12/02 11:15:41;;;;;;;;;;;;;;;2.67;100.00;99162.09;5149023;27;20537;-79
2022/12/02 11:18:09;;;;;;;42.20;21.58;;;;;;;2.72;100.00;99159.84;5147541;27;19919;-79
2022/12/02 11:20:41;;;;;;;64.05;29.52;;;;;;;2.64;100.00;99138.22;5146881;27;20070;-78
2022/12/02 11:23:23;;;;;;;24.88;14.40;;;;;;;2.72;100.00;99141.06;5140414;27;20043;-78
2022/12/02 11:26:05;;;;;;;31.52;21.85;;;;;;;2.64;100.00;99147.09;5143069;27;20112;-78
2022/12/02 11:29:13;;;;;;;16.65;8.55;;;;;;;2.69;100.00;99159.28;5144052;27;20074;-79
2022/12/02 11:31:40;;;;;;;16.60;11.05;;;;;;;2.58;100.00;99149.50;5143623;27;20051;-79
2022/12/02 11:34:41;;;;;;;24.48;14.45;;;;;;;2.56;100.00;99127.28;5145658;27;20213;-78
2022/12/02 11:37:47;;;;;;;16.52;9.43;;;;;;;2.80;100.00;99148.44;5141940;27;20046;-79
2022/12/02 11:40:57;;;;;;;24.52;14.32;;;;;;;2.88;100.00;99147.78;5146857;27;20069;-77
2022/12/02 11:43:42;;;;;;;;;;;;;;;2.92;100.00;99143.81;5142843;27;20102;-78
2022/12/02 11:46:11;;;;;;;37.25;23.08;;;;;;;2.83;100.00;99132.06;5149450;27;19951;-78
2022/12/02 11:48:44;;;;;;;36.40;22.73;;;;;;;2.73;100.00;99137.41;5142450;27;20069;-77
2022/12/02 11:51:29;;;;;;;39.05;25.83;;;;;;;2.59;100.00;99113.59;5150437;27;20050;-78
2022/12/02 11:53:57;;;;;;;81.45;57.70;;;;;;;2.71;100.00;99133.16;5151440;27;20047;-78
2022/12/02 11:56:27;;;;;;;38.67;26.45;;;;;;;2.64;100.00;99109.53;5138649;27;20047;-77
2022/12/02 11:58:54;;;;;;;31.75;23.17;;;;;;;2.62;100.00;99116.00;5148475;27;20035;-78
2022/12/02 12:01:22;;;;;;;17.23;10.82;;;;;;;2.72;100.00;99134.84;5144372;27;20073;-78
2022/12/02 12:03:50;;;;;;;18.88;11.30;;;;;;;2.50;100.00;99111.72;5148447;27;20505;-77
2022/12/02 12:06:20;;;;;;;18.13;9.05;;;;;;;2.60;100.00;99113.47;5152594;27;20767;-78
2022/12/02 12:08:49;;;;;;;19.83;10.95;;;;;;;2.69;100.00;99127.06;5155116;27;20473;-78
2022/12/02 12:11:23;;;;;;;18.67;10.77;;;;;;;2.78;100.00;99134.31;5143901;27;20093;-79
2022/12/02 12:14:04;;;;;;;21.40;11.00;;;;;;;2.69;100.00;99119.03;5146144;27;20047;-79
2022/12/02 12:16:34;;;;;;;23.90;10.73;;;;;;;2.64;100.00;99119.44;5157685;27;20047;-78
2022/12/02 12:19:01;;;;;;;19.77;10.13;;;;;;;2.63;100.00;99123.09;5151383;27;20062;-78
2022/12/02 12:21:41;;;;;;;19.40;10.10;;;;;;;2.59;100.00;99101.03;5149870;27;20468;-78
2022/12/02 12:24:35;;;;;;;17.70;11.40;;;;;;;2.76;100.00;99120.19;5150642;27;20447;-78
2022/12/02 12:27:32;;;;;;;42.80;26.58;;;;;;;2.78;100.00;99123.56;5140678;27;20509;-78
2022/12/02 12:29:59;;;;;;;20.05;12.05;;;;;;;2.65;100.00;99088.94;5151328;27;20046;-78
2022/12/02 12:35:53;;;;;;;18.77;9.23;;;;;;;2.64;100.00;99084.53;5143414;27;20106;-79
2022/12/02 12:38:19;;;;;;;17.55;9.05;;;;;;;2.79;100.00;99107.31;5146432;27;20046;-78
2022/12/02 12:40:46;;;;;;;18.23;9.07;;;;;;;2.69;100.00;99095.69;5149234;27;20129;-79
2022/12/02 12:43:12;;;;;;;21.63;9.98;;;;;;;2.61;100.00;99087.50;5148562;27;20046;-78
2022/12/02 12:45:39;;;;;;;20.08;9.10;;;;;;;2.65;100.00;99078.19;5152721;27;20050;-78
2022/12/02 12:48:09;;;;;;;19.65;10.60;;;;;;;2.72;100.00;99103.47;5150357;27;20503;-78
2022/12/02 12:50:35;;;;;;;20.63;11.05;;;;;;;2.77;100.00;99098.56;5152269;27;20051;-78
2022/12/02 12:53:03;;;;;;;21.75;11.00;;;;;;;2.64;100.00;99092.59;5152554;27;20134;-79
2022/12/02 12:55:30;;;;;;;22.05;10.32;;;;;;;2.65;100.00;99095.13;5153715;27;20446;-78
2022/12/02 12:57:56;;;;;;;21.80;11.23;;;;;;;2.72;100.00;99095.44;5149235;27;20397;-78
2022/12/02 13:00:23;;;;;;;19.05;10.60;;;;;;;2.63;100.00;99078.31;5151947;27;20507;-78
2022/12/02 13:02:49;;;;;;;23.42;10.55;;;;;;;2.56;100.00;99079.84;5141141;27;20054;-79
2022/12/02 13:05:16;;;;;;;20.85;9.23;;;;;;;2.60;100.00;99097.34;5148276;27;20050;-79
2022/12/02 13:07:43;;;;;;;19.02;10.32;;;;;;;2.47;100.00;99064.56;5152829;27;20401;-79
2022/12/02 13:10:11;;;;;;;24.67;11.05;;;;;;;2.44;100.00;99073.72;5151145;27;20039;-79
2022/12/02 13:12:38;;;;;;;24.55;12.00;;;;;;;2.57;100.00;99072.63;5150526;27;20481;-78
2022/12/02 13:15:05;;;;;;;22.75;10.40;;;;;;;2.62;100.00;99092.72;5152083;27;20046;-79
2022/12/02 13:17:32;;;;;;;25.70;11.50;;;;;;;2.56;100.00;99073.63;5143083;27;20051;-78
2022/12/02 13:19:58;;;;;;;20.50;10.73;;;;;;;2.60;100.00;99069.69;5152435;27;20239;-78
2022/12/02 13:22:25;;;;;;;24.17;11.05;;;;;;;2.75;100.00;99084.41;5152058;27;20043;-78
2022/12/02 13:24:51;;;;;;;24.95;11.82;;;;;;;2.74;100.00;99093.47;5143165;27;20134;-78
2022/12/02 13:27:19;;;;;;;23.25;11.25;;;;;;;2.61;100.00;99063.34;5139827;27;20478;-78
2022/12/02 13:29:46;;;;;;;28.20;10.80;;;;;;;2.70;100.00;99075.09;5150921;27;20122;-79
2022/12/02 13:32:12;;;;;;;21.60;9.50;;;;;;;2.74;100.00;99082.75;5141894;27;20050;-79
2022/12/02 13:34:39;;;;;;;18.00;9.80;;;;;;;2.64;100.00;99066.59;5148408;27;20390;-78
2022/12/02 13:37:05;;;;;;;22.80;10.30;;;;;;;2.53;100.00;99063.16;5137757;27;20449;-79
2022/12/02 13:39:32;;;;;;;23.52;10.98;;;;;;;2.53;100.00;99058.66;5143894;27;20402;-78
2022/12/02 13:41:59;;;;;;;22.10;11.38;;;;;;;2.58;100.00;99068.97;5140979;27;20042;-78
2022/12/02 13:44:27;;;;;;;21.75;10.38;;;;;;;2.67;100.00;99086.94;5151402;27;20043;-78
2022/12/02 13:46:53;;;;;;;23.10;11.48;;;;;;;2.60;100.00;99064.31;5146099;27;20042;-78
2022/12/02 13:49:20;;;;;;;17.58;9.75;;;;;;;2.50;100.00;99060.75;5141591;27;20045;-78
2022/12/02 13:51:46;;;;;;;18.42;9.27;;;;;;;2.63;100.00;99097.13;5151249;27;20047;-78
2022/12/02 13:54:13;;;;;;;23.70;12.93;;;;;;;2.58;100.00;99071.66;5145599;27;20053;-78
2022/12/02 13:56:39;;;;;;;21.08;10.40;;;;;;;2.63;100.00;99088.19;5142919;27;20042;-78
2022/12/02 13:59:06;;;;;;;19.23;10.40;;;;;;;2.46;100.00;99057.50;5145673;27;20289;-78
2022/12/02 14:01:34;;;;;;;18.77;9.80;;;;;;;2.73;100.00;99080.19;5144885;27;20643;-78
2022/12/02 14:04:00;;;;;;;16.08;8.38;;;;;;;2.73;100.00;99090.94;5147546;27;20409;-78
2022/12/02 14:06:27;;;;;;;22.67;10.20;;;;;;;2.63;100.00;99091.75;5146093;27;20553;-79
2022/12/02 14:08:54;;;;;;;18.08;10.18;;;;;;;2.57;100.00;99080.69;5148360;27;20190;-79
2022/12/02 14:11:20;;;;;;;20.52;9.50;;;;;;;2.46;100.00;99077.13;5145889;27;20065;-78
2022/12/02 14:13:47;;;;;;;21.95;9.68;;;;;;;2.55;100.00;99091.56;5141491;27;20054;-78
2022/12/02 14:16:16;;;;;;;18.30;9.38;;;;;;;2.61;100.00;99092.84;5141875;27;20035;-78
2022/12/02 14:18:44;;;;;;;18.73;9.90;;;;;;;2.47;100.00;99062.72;5136392;27;20062;-78
2022/12/02 14:21:11;;;;;;;19.63;9.45;;;;;;;2.57;100.00;99076.16;5149940;27;20042;-78
2022/12/02 14:23:38;;;;;;;20.90;9.60;;;;;;;2.60;100.00;99091.16;5143643;27;20428;-79
2022/12/02 14:26:04;;;;;;;22.13;10.23;;;;;;;2.71;100.00;99087.50;5149207;27;20043;-78
2022/12/02 14:28:31;;;;;;;21.88;10.73;;;;;;;2.60;100.00;99078.56;5146179;27;20130;-78
2022/12/02 14:30:58;;;;;;;17.50;9.32;;;;;;;2.65;100.00;99084.41;5144652;27;20125;-78
2022/12/02 14:33:24;;;;;;;20.85;9.70;;;;;;;2.57;100.00;99069.94;5144696;27;20068;-78
2022/12/02 14:35:53;;;;;;;18.63;9.70;;;;;;;2.58;100.00;99087.75;5143687;27;20042;-80
2022/12/02 14:38:19;;;;;;;21.95;10.25;;;;;;;2.57;100.00;99086.06;5144982;27;20043;-77
2022/12/02 14:40:46;;;;;;;46.58;19.30;;;;;;;2.44;100.00;99084.47;5154170;27;20074;-77
2022/12/02 14:43:12;;;;;;;22.08;12.23;;;;;;;2.37;100.00;99063.69;5149944;27;20121;-77
2022/12/02 14:45:39;;;;;;;25.40;13.40;;;;;;;2.29;100.00;99061.66;5147478;27;20051;-77
2022/12/02 14:48:06;;;;;;;20.80;10.30;;;;;;;2.52;100.00;99083.78;5149628;27;20060;-77
2022/12/02 14:50:32;;;;;;;20.85;9.93;;;;;;;2.38;100.00;99066.22;5149054;27;20375;-77
2022/12/02 14:53:00;;;;;;;20.08;10.82;;;;;;;2.43;100.00;99058.59;5147375;27;20455;-77
2022/12/02 14:55:27;;;;;;;20.83;10.07;;;;;;;2.48;100.00;99063.56;5140037;27;20046;-77
2022/12/02 14:57:54;;;;;;;16.98;9.40;;;;;;;2.46;100.00;99068.22;5145345;27;20401;-77
2022/12/02 15:00:21;;;;;;;21.90;8.85;;;;;;;2.58;100.00;99087.75;5144885;27;20409;-77
2022/12/02 15:02:48;;;;;;;17.10;9.57;;;;;;;2.33;100.00;99054.19;5144353;27;20057;-77
2022/12/02 15:05:16;;;;;;;18.08;8.93;;;;;;;2.53;100.00;99079.25;5143114;27;20129;-77
2022/12/02 15:07:43;;;;;;;15.80;9.48;;;;;;;2.42;100.00;99067.63;5150767;27;20058;-77
2022/12/02 15:10:12;;;;;;;18.38;9.55;;;;;;;2.48;100.00;99066.25;5141626;27;20142;-77
2022/12/02 15:12:39;;;;;;;22.80;10.30;;;;;;;2.65;100.00;99102.34;5145270;27;20046;-77
2022/12/02 15:15:07;;;;;;;18.50;10.13;;;;;;;2.46;100.00;99071.75;5147625;27;20541;-78
2022/12/02 15:17:34;;;;;;;20.50;10.60;;;;;;;2.59;100.00;99071.53;5138248;27;20068;-78
2022/12/02 15:20:01;;;;;;;26.20;13.07;;;;;;;2.52;100.00;99067.69;5136551;27;20579;-77
2022/12/02 15:22:28;;;;;;;25.23;11.68;;;;;;;2.55;100.00;99078.13;5147557;27;20069;-77
2022/12/02 15:24:55;;;;;;;28.90;11.27;;;;;;;2.65;100.00;99096.97;5137892;27;20513;-77
2022/12/02 15:27:23;;;;;;;20.70;9.43;;;;;;;2.50;100.00;99071.47;5142436;27;20058;-77
2022/12/02 15:29:50;;;;;;;20.60;10.02;;;;;;;2.65;100.00;99099.66;5141714;27;20057;-77
2022/12/02 15:32:17;;;;;;;20.73;9.88;;;;;;;2.63;100.00;99078.31;5147981;27;20050;-77
2022/12/02 15:34:43;;;;;;;19.90;8.85;;;;;;;2.56;100.00;99070.94;5145746;27;20055;-77
2022/12/02 15:37:12;;;;;;;14.43;8.55;;;;;;;2.59;100.00;99093.00;5147831;27;20173;-77
2022/12/02 15:39:39;;;;;;;16.33;8.82;;;;;;;2.45;100.00;99074.56;5154294;27;20050;-77
2022/12/02 15:42:05;;;;;;;22.45;10.57;;;;;;;2.46;100.00;99082.47;5152335;27;20158;-77
2022/12/02 15:44:33;;;;;;;17.90;9.50;;;;;;;2.58;100.00;99095.81;5145670;27;20053;-77
2022/12/02 15:47:00;;;;;;;18.20;9.55;;;;;;;2.55;100.00;99088.03;5151681;27;20047;-77
2022/12/02 15:49:26;;;;;;;22.80;10.35;;;;;;;2.59;100.00;99084.94;5148856;27;20049;-77
2022/12/02 15:51:53;;;;;;;14.85;8.25;;;;;;;2.64;100.00;99097.97;5155319;27;20135;-77
2022/12/02 15:54:20;;;;;;;20.08;11.15;;;;;;;2.53;100.00;99064.03;5146278;27;20039;-77
2022/12/02 15:56:46;;;;;;;14.90;8.43;;;;;;;2.58;100.00;99077.88;5144986;27;20134;-77
2022/12/02 15:59:15;;;;;;;13.18;8.20;;;;;;;2.56;100.00;99078.97;5147546;27;20473;-77
2022/12/02 16:01:43;;;;;;;14.20;8.27;;;;;;;2.62;100.00;99070.38;5151232;27;20047;-77
2022/12/02 16:04:09;;;;;;;19.80;8.32;;;;;;;2.57;100.00;99081.53;5149913;27;20133;-77
2022/12/02 16:06:36;;;;;;;18.98;7.45;;;;;;;2.53;100.00;99065.84;5146201;27;20540;-77
2022/12/02 16:09:03;;;;;;;13.88;7.45;;;;;;;2.56;100.00;99084.34;5142826;27;20047;-77
2022/12/02 16:11:29;;;;;;;12.00;7.57;;;;;;;2.54;100.00;99083.66;5150462;27;20047;-77
2022/12/02 16:13:56;;;;;;;17.45;9.18;;;;;;;2.52;100.00;99089.16;5147082;27;20054;-78
2022/12/02 16:16:23;;;;;;;21.23;10.30;;;;;;;2.52;100.00;99097.19;5155140;27;20042;-77
2022/12/02 16:18:51;;;;;;;14.68;8.38;;;;;;;2.45;100.00;99086.16;5153716;27;20161;-77
2022/12/02 16:21:18;;;;;;;13.88;7.95;;;;;;;2.42;100.00;99091.78;5148289;27;20043;-77
2022/12/02 16:23:45;;;;;;;16.52;8.35;;;;;;;2.32;100.00;99095.41;5149243;27;20051;-77
2022/12/02 16:26:12;;;;;;;12.40;7.53;;;;;;;2.58;100.00;99110.06;5152297;27;20154;-77
2022/12/02 16:28:41;;;;;;;13.57;7.70;;;;;;;2.54;100.00;99110.47;5156405;27;20115;-78
2022/12/02 16:31:08;;;;;;;18.08;7.57;;;;;;;2.55;100.00;99112.19;5156686;27;20047;-79
2022/12/02 16:33:34;;;;;;;12.95;7.65;;;;;;;2.52;100.00;99097.19;5152967;27;20134;-78
2022/12/02 16:36:02;;;;;;;16.17;7.65;;;;;;;2.46;100.00;99082.47;5142603;27;20043;-78
2022/12/02 16:38:29;;;;;;;13.93;6.95;;;;;;;2.41;100.00;99087.41;5148465;27;20057;-78
2022/12/02 16:40:56;;;;;;;13.85;7.18;;;;;;;2.59;100.00;99113.59;5154024;27;20062;-79
2022/12/02 16:43:22;;;;;;;12.60;6.85;;;;;;;2.56;100.00;99106.69;5153240;27;20070;-79
2022/12/02 16:45:49;;;;;;;14.45;7.38;;;;;;;2.50;100.00;99128.69;5145308;27;20042;-79
2022/12/02 16:48:15;;;;;;;13.90;7.45;;;;;;;2.38;100.00;99092.19;5143292;27;20042;-79
2022/12/02 16:50:42;;;;;;;17.55;8.05;;;;;;;2.58;100.00;99115.44;5145701;27;20118;-79
2022/12/02 16:53:10;;;;;;;12.95;7.88;;;;;;;2.44;100.00;99107.78;5145013;27;20490;-79
2022/12/02 16:55:37;;;;;;;14.10;7.53;;;;;;;2.36;100.00;99096.84;5152701;27;20059;-79
2022/12/02 16:58:03;;;;;;;14.07;8.00;;;;;;;2.61;100.00;99128.59;5153738;27;20060;-78
2022/12/02 17:00:30;;;;;;;14.68;7.25;;;;;;;2.40;100.00;99098.28;5153857;27;20130;-79
2022/12/02 17:02:56;;;;;;;12.18;6.97;;;;;;;2.38;100.00;99105.59;5146383;27;20050;-79
2022/12/02 17:05:23;;;;;;;12.60;7.03;;;;;;;2.33;100.00;99099.81;5142453;27;20069;-79
2022/12/02 17:07:51;;;;;;;11.82;6.70;;;;;;;2.43;100.00;99108.75;5144208;27;20054;-79
2022/12/02 17:10:19;;;;;;;15.15;7.03;;;;;;;2.53;100.00;99123.06;5145357;27;20538;-79
2022/12/02 17:12:46;;;;;;;17.67;7.43;;;;;;;2.57;100.00;99113.72;5153424;27;20053;-79
2022/12/02 17:15:12;;;;;;;16.90;9.95;;;;;;;2.44;100.00;99103.25;5152199;27;20066;-79
2022/12/02 17:17:39;;;;;;;17.10;9.43;;;;;;;2.35;100.00;99097.81;5153855;27;20050;-79
2022/12/02 17:20:07;;;;;;;19.60;9.45;;;;;;;2.51;100.00;99116.13;5151827;27;20042;-79
2022/12/02 17:22:34;;;;;;;16.60;8.98;;;;;;;2.41;100.00;99108.88;5150083;27;20082;-79
2022/12/02 17:25:00;;;;;;;15.63;8.27;;;;;;;2.44;100.00;99115.81;5152753;27;20076;-79
2022/12/02 17:27:28;;;;;;;12.77;7.13;;;;;;;2.37;100.00;99120.84;5153689;27;20065;-79
2022/12/02 17:29:55;;;;;;;14.20;7.25;;;;;;;2.45;100.00;99131.78;5153486;27;20039;-80
2022/12/02 17:32:21;;;;;;;14.32;7.38;;;;;;;2.39;100.00;99115.34;5152029;27;20046;-79
2022/12/02 17:34:51;;;;;;;14.32;7.05;;;;;;;2.44;100.00;99103.25;5146100;27;20046;-80
2022/12/02 17:37:18;;;;;;;12.35;7.07;;;;;;;2.52;100.00;99126.72;5150921;27;20161;-79
2022/12/02 17:39:45;;;;;;;14.35;7.72;;;;;;;2.50;100.00;99131.38;5148518;27;20056;-79
2022/12/02 17:42:11;;;;;;;14.95;6.75;;;;;;;2.63;100.00;99137.38;5145457;27;20141;-79
2022/12/02 17:44:39;;;;;;;13.45;6.90;;;;;;;2.44;100.00;99134.59;5153905;27;20051;-80
2022/12/02 17:47:08;;;;;;;18.95;7.47;;;;;;;2.45;100.00;99120.19;5154036;27;20150;-80
2022/12/02 17:49:34;;;;;;;15.70;7.75;;;;;;;2.36;100.00;99116.47;5147860;27;20469;-80
2022/12/02 17:52:01;;;;;;;13.32;7.20;;;;;;;2.36;100.00;99121.84;5150900;27;20492;-80
2022/12/02 17:54:28;;;;;;;15.23;8.02;;;;;;;2.32;100.00;99128.47;5150507;27;20047;-80
2022/12/02 17:56:54;;;;;;;18.15;7.75;;;;;;;2.39;100.00;99112.69;5152961;27;20091;-79
2022/12/02 17:59:21;;;;;;;26.02;9.93;;;;;;;2.29;100.00;99110.78;5152858;27;20472;-80
2022/12/02 18:01:49;;;;;;;21.13;10.23;;;;;;;2.35;100.00;99106.75;5151398;27;20077;-79
2022/12/02 18:04:16;;;;;;;18.17;8.55;;;;;;;2.50;100.00;99134.06;5150814;27;20058;-79
2022/12/02 18:06:43;;;;;;;16.33;9.05;;;;;;;2.46;100.00;99149.56;5149538;27;20043;-79
2022/12/02 18:09:09;;;;;;;18.83;8.85;;;;;;;2.28;100.00;99127.88;5152797;27;20073;-80
2022/12/02 18:11:36;;;;;;;19.90;8.48;;;;;;;2.39;100.00;99136.81;5152486;27;20046;-79
2022/12/02 18:14:02;;;;;;;16.13;7.50;;;;;;;2.24;100.00;99122.91;5150947;27;20053;-79
2022/12/02 18:16:29;;;;;;;20.05;10.05;;;;;;;2.20;100.00;99126.81;5150639;27;20039;-79
2022/12/02 18:18:57;;;;;;;20.10;8.52;;;;;;;2.29;100.00;99126.91;5148362;27;20142;-79
2022/12/02 18:21:23;;;;;;;16.38;8.32;;;;;;;2.28;100.00;99118.97;5148449;27;20046;-79
2022/12/02 18:23:50;;;;;;;27.20;12.68;;;;;;;2.29;100.00;99143.00;5151006;27;20292;-79
2022/12/02 18:26:16;;;;;;;23.60;11.65;;;;;;;2.47;100.00;99139.69;5147604;27;20050;-79
2022/12/02 18:28:43;;;;;;;16.90;8.73;;;;;;;2.45;100.00;99141.66;5150849;27;20507;-80
2022/12/02 18:31:10;;;;;;;14.27;7.10;;;;;;;2.43;100.00;99136.41;5151216;27;20043;-80
